Time;durP1;ratioP1;P1;durP2;ratioP2;P2;SDS_P1;SDS_P2;PMS_P1;PMS_P2;Temp;Humidity;BMP_temperature;BMP_pressure;BME280_temperature;BME280_humidity;BME280_pressure;Samples;Min_cycle;Max_cycle;Signal;HPM_P1;HPM_P2
2021/10/21 00:01:49;;;;;;;10.10;7.88;;;13.60;67.40;;;;;;4992154;28;20026;-57
2021/10/21 00:04:14;;;;;;;10.15;7.70;;;13.60;67.50;;;;;;4996313;28;20065;-53
2021/10/21 00:06:40;;;;;;;8.60;7.25;;;13.60;67.50;;;;;;4997116;28;20070;-53
2021/10/21 00:09:06;;;;;;;8.68;7.00;;;13.60;67.60;;;;;;4996767;28;20026;-53
2021/10/21 00:11:33;;;;;;;9.55;7.72;;;13.60;67.60;;;;;;4997058;28;20077;-54
2021/10/21 00:13:58;;;;;;;12.02;9.13;;;13.60;67.60;;;;;;4997035;28;20029;-53
2021/10/21 00:16:24;;;;;;;10.43;8.95;;;13.50;67.60;;;;;;4997092;28;20034;-53
2021/10/21 00:18:50;;;;;;;10.18;7.75;;;13.50;67.60;;;;;;4989209;28;20026;-53
2021/10/21 00:21:17;;;;;;;11.18;7.82;;;13.50;67.70;;;;;;4990404;28;20033;-51
2021/10/21 00:23:43;;;;;;;10.50;7.85;;;13.50;67.90;;;;;;4977388;28;20054;-53
2021/10/21 00:26:09;;;;;;;9.93;7.35;;;13.50;67.90;;;;;;4977361;28;20058;-51
2021/10/21 00:28:36;;;;;;;12.70;9.20;;;13.50;68.20;;;;;;4987810;28;20035;-53
2021/10/21 00:31:02;;;;;;;11.30;7.65;;;13.50;68.00;;;;;;4996964;28;20394;-54
2021/10/21 00:33:28;;;;;;;11.55;8.52;;;13.50;68.00;;;;;;4996476;28;20057;-53
2021/10/21 00:35:53;;;;;;;11.20;8.65;;;13.50;68.20;;;;;;4989472;28;20030;-53
2021/10/21 00:38:19;;;;;;;10.02;8.23;;;13.50;68.40;;;;;;4979863;28;20050;-53
2021/10/21 00:40:45;;;;;;;10.90;8.05;;;13.50;68.40;;;;;;4995350;28;20032;-53
2021/10/21 00:43:11;;;;;;;10.77;8.32;;;13.50;68.30;;;;;;4996739;28;20028;-53
2021/10/21 00:45:36;;;;;;;11.55;8.90;;;13.50;68.30;;;;;;4996377;28;20034;-51
2021/10/21 00:48:03;;;;;;;11.70;8.43;;;13.50;68.30;;;;;;4996759;28;20487;-52
2021/10/21 00:50:29;;;;;;;13.20;9.57;;;13.40;68.40;;;;;;4996203;28;20030;-53
2021/10/21 00:52:55;;;;;;;12.05;8.82;;;13.40;68.40;;;;;;4990630;28;20118;-54
2021/10/21 00:55:21;;;;;;;11.48;9.23;;;13.40;68.50;;;;;;4977659;28;20030;-54
2021/10/21 00:57:48;;;;;;;11.75;9.68;;;13.30;68.60;;;;;;4992303;28;20378;-54
2021/10/21 01:00:14;;;;;;;11.25;8.40;;;13.30;68.80;;;;;;4995818;28;20054;-52
2021/10/21 01:02:39;;;;;;;11.70;9.05;;;13.30;68.90;;;;;;4995541;28;20069;-54
2021/10/21 01:05:06;;;;;;;13.90;10.23;;;13.30;68.90;;;;;;4991810;28;20026;-51
2021/10/21 01:07:33;;;;;;;11.63;9.75;;;13.30;68.90;;;;;;4977076;28;20035;-54
2021/10/21 01:10:00;;;;;;;12.13;9.70;;;13.30;69.00;;;;;;4989861;28;20058;-52
2021/10/21 01:12:26;;;;;;;12.38;9.52;;;13.30;69.20;;;;;;4976977;28;20038;-51
2021/10/21 01:14:52;;;;;;;14.57;10.48;;;13.30;69.20;;;;;;4976858;28;20034;-51
2021/10/21 01:17:18;;;;;;;12.55;9.52;;;13.20;69.20;;;;;;4979717;28;20391;-53
2021/10/21 01:19:44;;;;;;;15.45;10.50;;;13.20;69.40;;;;;;4995744;28;20022;-53
2021/10/21 01:22:10;;;;;;;11.90;9.48;;;13.10;69.40;;;;;;4995954;28;20069;-53
2021/10/21 01:24:36;;;;;;;11.43;9.20;;;13.10;69.50;;;;;;4995922;28;20034;-53
2021/10/21 01:27:01;;;;;;;12.77;9.90;;;13.10;69.90;;;;;;4989749;28;20033;-53
2021/10/21 01:29:27;;;;;;;12.88;9.80;;;13.10;70.00;;;;;;4976324;28;20035;-55
2021/10/21 01:31:55;;;;;;;12.48;10.38;;;13.10;70.00;;;;;;4994514;28;20034;-53
2021/10/21 01:34:21;;;;;;;15.38;11.35;;;13.00;70.20;;;;;;4994165;28;20036;-54
2021/10/21 01:36:52;;;;;;;14.00;10.57;;;13.00;70.10;;;;;;4995124;28;20030;-53
2021/10/21 01:39:19;;;;;;;14.32;10.57;;;13.00;70.40;;;;;;4994971;28;20127;-56
2021/10/21 01:41:45;;;;;;;14.55;10.07;;;13.00;70.30;;;;;;4995502;28;20030;-53
2021/10/21 01:44:10;;;;;;;12.07;10.25;;;13.00;70.40;;;;;;4985060;28;20034;-55
2021/10/21 01:46:38;;;;;;;13.50;11.13;;;12.90;70.40;;;;;;4975074;28;20031;-53
2021/10/21 01:49:04;;;;;;;12.88;10.07;;;12.90;70.70;;;;;;4992093;28;20037;-53
2021/10/21 01:51:30;;;;;;;15.27;11.60;;;12.90;70.90;;;;;;4993814;28;20042;-53
2021/10/21 01:53:55;;;;;;;14.23;10.57;;;12.90;70.80;;;;;;4994236;28;20525;-52
2021/10/21 01:56:23;;;;;;;13.48;9.57;;;12.90;71.00;;;;;;4994985;28;20049;-54
2021/10/21 01:58:48;;;;;;;16.08;11.75;;;12.90;71.00;;;;;;4994920;28;20026;-53
2021/10/21 02:01:14;;;;;;;13.48;10.98;;;12.80;71.10;;;;;;4990254;28;20100;-53
2021/10/21 02:03:39;;;;;;;12.88;10.52;;;12.80;71.40;;;;;;4979753;28;20411;-51
2021/10/21 02:06:05;;;;;;;14.50;11.02;;;12.80;71.40;;;;;;4978019;28;20031;-51
2021/10/21 02:08:31;;;;;;;14.05;10.50;;;12.80;71.50;;;;;;4994841;28;20166;-53
2021/10/21 02:10:56;;;;;;;14.18;10.88;;;12.80;71.60;;;;;;4994863;28;20088;-53
2021/10/21 02:13:22;;;;;;;16.10;11.32;;;12.80;72.00;;;;;;4994658;28;20026;-53
2021/10/21 02:15:48;;;;;;;13.02;10.50;;;12.70;71.90;;;;;;4992732;28;20034;-53
2021/10/21 02:18:13;;;;;;;14.13;10.88;;;12.70;72.10;;;;;;4977872;28;20162;-53
2021/10/21 02:20:39;;;;;;;13.93;10.68;;;12.70;72.10;;;;;;4975463;28;20038;-53
2021/10/21 02:23:05;;;;;;;12.23;10.15;;;12.70;72.40;;;;;;4975450;28;20023;-53
2021/10/21 02:25:30;;;;;;;13.80;10.63;;;12.70;72.40;;;;;;4993700;28;20023;-54
2021/10/21 02:27:56;;;;;;;13.85;10.23;;;12.70;72.40;;;;;;4994414;28;20381;-53
2021/10/21 02:30:22;;;;;;;16.80;11.02;;;12.70;72.50;;;;;;4994701;28;20109;-53
2021/10/21 02:32:48;;;;;;;12.90;9.48;;;12.70;72.70;;;;;;4994287;28;20537;-53
2021/10/21 02:35:14;;;;;;;14.70;11.35;;;12.70;72.90;;;;;;4978432;28;20023;-53
2021/10/21 02:37:41;;;;;;;15.27;11.23;;;12.70;72.70;;;;;;4983124;28;20478;-53
2021/10/21 02:40:10;;;;;;;14.43;10.57;;;12.70;72.70;;;;;;4994430;28;20054;-53
2021/10/21 02:42:35;;;;;;;14.80;11.75;;;12.70;72.90;;;;;;4994069;28;20386;-53
2021/10/21 02:45:02;;;;;;;14.93;10.63;;;12.70;72.90;;;;;;4993858;28;20037;-53
2021/10/21 02:47:27;;;;;;;14.40;11.27;;;12.60;72.90;;;;;;4993875;28;20030;-54
2021/10/21 02:49:53;;;;;;;13.23;10.43;;;12.60;73.00;;;;;;4992166;28;20018;-53
2021/10/21 02:52:20;;;;;;;13.27;10.30;;;12.60;73.00;;;;;;4974675;28;20391;-53
2021/10/21 02:54:45;;;;;;;12.68;9.68;;;12.60;73.20;;;;;;4985626;28;20029;-53
2021/10/21 02:57:11;;;;;;;13.70;10.80;;;12.60;73.20;;;;;;4993590;28;20031;-53
2021/10/21 02:59:36;;;;;;;13.05;9.88;;;12.60;73.20;;;;;;4977035;28;20486;-53
2021/10/21 03:02:02;;;;;;;15.52;11.65;;;12.60;73.30;;;;;;4991123;28;20022;-53
2021/10/21 03:04:28;;;;;;;12.45;10.18;;;12.60;73.50;;;;;;4991699;28;20026;-53
2021/10/21 03:06:54;;;;;;;13.15;10.75;;;12.60;73.50;;;;;;4985520;28;20609;-53
2021/10/21 03:09:19;;;;;;;13.48;11.18;;;12.60;73.60;;;;;;4972308;28;20027;-54
2021/10/21 03:11:45;;;;;;;12.38;9.95;;;12.60;73.60;;;;;;4989596;28;20032;-53
2021/10/21 03:14:11;;;;;;;14.45;10.70;;;12.60;73.70;;;;;;4991522;28;20320;-53
2021/10/21 03:16:38;;;;;;;14.25;10.77;;;12.60;73.80;;;;;;4991650;28;20061;-54
2021/10/21 03:19:05;;;;;;;11.00;8.90;;;12.60;73.80;;;;;;4993461;28;20482;-53
2021/10/21 03:21:32;;;;;;;13.30;10.23;;;12.60;73.80;;;;;;4992933;28;20107;-54
2021/10/21 03:23:58;;;;;;;12.40;9.73;;;12.60;73.90;;;;;;4986559;28;20023;-53
2021/10/21 03:26:24;;;;;;;14.52;10.80;;;12.60;73.90;;;;;;4973294;28;20031;-53
2021/10/21 03:28:50;;;;;;;13.38;10.50;;;12.60;74.10;;;;;;4972905;28;20027;-53
2021/10/21 03:31:17;;;;;;;14.18;10.73;;;12.60;74.10;;;;;;4973622;28;20030;-53
2021/10/21 03:33:43;;;;;;;13.10;9.57;;;12.50;74.30;;;;;;4992204;28;20077;-53
2021/10/21 03:36:08;;;;;;;14.63;9.38;;;12.50;74.20;;;;;;4992580;28;20019;-53
2021/10/21 03:38:34;;;;;;;14.38;10.75;;;12.50;74.20;;;;;;4992068;28;20058;-51
2021/10/21 03:41:02;;;;;;;13.48;10.77;;;12.50;74.40;;;;;;4977234;28;20030;-51
2021/10/21 03:43:28;;;;;;;14.15;11.48;;;12.50;74.40;;;;;;4973900;28;20034;-51
2021/10/21 03:45:53;;;;;;;12.15;10.15;;;12.50;74.40;;;;;;4973722;28;20471;-52
2021/10/21 03:48:19;;;;;;;13.38;10.05;;;12.50;74.70;;;;;;4973613;28;20055;-52
2021/10/21 03:50:45;;;;;;;13.80;10.40;;;12.50;74.80;;;;;;4972391;28;20023;-51
2021/10/21 03:53:13;;;;;;;14.00;11.32;;;12.50;74.80;;;;;;4989761;28;20077;-55
2021/10/21 03:55:39;;;;;;;14.43;10.60;;;12.50;75.00;;;;;;4990878;28;20390;-54
2021/10/21 03:58:05;;;;;;;13.57;9.95;;;12.50;75.00;;;;;;4976733;28;20383;-51
2021/10/21 04:00:30;;;;;;;13.60;9.88;;;12.50;74.80;;;;;;4973215;28;20026;-51
2021/10/21 04:02:56;;;;;;;13.07;9.95;;;12.50;75.10;;;;;;4973512;28;20019;-51
2021/10/21 04:05:23;;;;;;;13.23;11.07;;;12.40;74.90;;;;;;4979542;28;20117;-53
2021/10/21 04:07:50;;;;;;;15.13;10.77;;;12.50;75.00;;;;;;4993147;28;20030;-53
2021/10/21 04:10:16;;;;;;;11.55;9.68;;;12.40;75.00;;;;;;4992646;28;20022;-52
2021/10/21 04:12:42;;;;;;;14.50;11.43;;;12.40;75.20;;;;;;4992008;28;20037;-51
2021/10/21 04:15:08;;;;;;;13.43;9.77;;;12.40;75.10;;;;;;4982801;28;20383;-54
2021/10/21 04:17:34;;;;;;;15.50;10.63;;;12.40;75.30;;;;;;4986577;28;20275;-54
2021/10/21 04:20:00;;;;;;;13.85;10.95;;;12.40;75.30;;;;;;4985979;28;20032;-54
2021/10/21 04:22:25;;;;;;;13.13;10.15;;;12.40;75.30;;;;;;4988207;28;20077;-54
2021/10/21 04:24:51;;;;;;;12.00;10.02;;;12.40;75.30;;;;;;4986497;28;20018;-55
2021/10/21 04:27:18;;;;;;;11.85;9.50;;;12.40;75.40;;;;;;4989437;28;20360;-57
2021/10/21 04:29:43;;;;;;;13.32;9.90;;;12.40;75.50;;;;;;4989557;28;20496;-53
2021/10/21 04:32:09;;;;;;;14.90;11.30;;;12.40;76.00;;;;;;4984761;28;20131;-56
2021/10/21 04:34:35;;;;;;;14.40;10.73;;;12.30;75.40;;;;;;4988002;28;20470;-53
2021/10/21 04:37:02;;;;;;;13.20;10.25;;;12.30;75.50;;;;;;4989595;28;20077;-54
2021/10/21 04:39:27;;;;;;;13.48;10.93;;;12.30;75.60;;;;;;4991475;28;20074;-53
2021/10/21 04:41:53;;;;;;;13.52;10.77;;;12.30;75.50;;;;;;4991672;28;20058;-53
2021/10/21 04:44:19;;;;;;;14.23;10.85;;;12.30;75.60;;;;;;4991129;28;20371;-56
2021/10/21 04:46:45;;;;;;;14.77;11.20;;;12.30;76.50;;;;;;4989053;28;20041;-53
2021/10/21 04:49:10;;;;;;;12.50;10.68;;;12.30;75.70;;;;;;4985828;28;20037;-54
2021/10/21 04:51:36;;;;;;;12.73;10.52;;;12.30;75.80;;;;;;4990858;28;20039;-53
2021/10/21 04:54:02;;;;;;;13.63;11.35;;;12.40;75.80;;;;;;4994791;28;20037;-56
2021/10/21 04:56:27;;;;;;;14.25;10.85;;;12.40;75.80;;;;;;4993084;28;20383;-53
2021/10/21 04:58:53;;;;;;;15.55;11.43;;;12.40;75.90;;;;;;4995026;28;20368;-53
2021/10/21 05:01:19;;;;;;;13.48;10.90;;;12.40;75.80;;;;;;4984533;28;20076;-53
2021/10/21 05:03:44;;;;;;;14.85;10.65;;;12.50;75.80;;;;;;4985322;28;20037;-51
2021/10/21 05:06:10;;;;;;;14.40;11.02;;;12.50;75.80;;;;;;4982897;28;20487;-53
2021/10/21 05:08:36;;;;;;;14.20;11.43;;;12.50;75.60;;;;;;4991694;28;20027;-51
2021/10/21 05:11:02;;;;;;;13.85;10.57;;;12.50;75.60;;;;;;4983369;28;20130;-51
2021/10/21 05:13:27;;;;;;;15.60;11.80;;;12.50;75.60;;;;;;4971227;28;20042;-51
2021/10/21 05:15:53;;;;;;;16.67;11.80;;;12.50;75.60;;;;;;4986689;28;20027;-51
2021/10/21 05:18:19;;;;;;;15.48;11.75;;;12.50;75.70;;;;;;4982620;28;20037;-52
2021/10/21 05:20:45;;;;;;;16.77;12.35;;;12.50;75.70;;;;;;4984236;28;20498;-51
2021/10/21 05:23:10;;;;;;;17.35;12.75;;;12.50;75.70;;;;;;4981192;28;20053;-51
2021/10/21 05:25:36;;;;;;;13.70;11.15;;;12.50;75.70;;;;;;4992338;28;20027;-51
2021/10/21 05:28:02;;;;;;;18.27;12.05;;;12.50;75.80;;;;;;4989054;28;20134;-51
2021/10/21 05:30:28;;;;;;;15.55;11.60;;;12.50;75.90;;;;;;4986268;28;20080;-52
2021/10/21 05:32:54;;;;;;;13.65;10.57;;;12.50;76.00;;;;;;4989137;28;20035;-54
2021/10/21 05:35:21;;;;;;;13.82;11.80;;;12.60;76.20;;;;;;4987171;28;20059;-51
2021/10/21 05:37:46;;;;;;;12.90;10.00;;;12.60;76.30;;;;;;4979321;28;20374;-51
2021/10/21 05:40:13;;;;;;;13.70;10.75;;;12.60;76.20;;;;;;4979871;28;20037;-54
2021/10/21 05:42:39;;;;;;;12.73;10.35;;;12.60;76.00;;;;;;4978300;28;20467;-53
2021/10/21 05:45:06;;;;;;;13.18;11.02;;;12.70;76.10;;;;;;4977654;28;20069;-54
2021/10/21 05:47:31;;;;;;;13.55;11.40;;;12.70;76.10;;;;;;4977663;28;20042;-52
2021/10/21 05:49:57;;;;;;;15.38;11.25;;;12.70;76.00;;;;;;4978838;28;20035;-51
2021/10/21 05:52:25;;;;;;;13.40;11.13;;;12.80;76.00;;;;;;4984800;28;20038;-52
2021/10/21 05:54:53;;;;;;;15.00;10.15;;;12.70;75.90;;;;;;4983369;28;20027;-51
2021/10/21 05:57:20;;;;;;;16.50;11.15;;;12.80;75.80;;;;;;4981158;28;20454;-51
2021/10/21 05:59:46;;;;;;;14.90;11.18;;;12.80;75.90;;;;;;4982035;28;20459;-51
2021/10/21 06:02:12;;;;;;;12.07;10.32;;;12.80;75.80;;;;;;4982333;28;20046;-52
2021/10/21 06:04:37;;;;;;;14.63;10.98;;;12.90;75.80;;;;;;4981983;28;20038;-52
2021/10/21 06:07:04;;;;;;;14.93;11.05;;;12.90;75.70;;;;;;4975906;28;21174;-54
2021/10/21 06:09:30;;;;;;;13.52;10.65;;;12.90;75.60;;;;;;4974153;28;20113;-54
2021/10/21 06:11:56;;;;;;;13.15;10.52;;;12.90;75.60;;;;;;4976842;28;20431;-52
2021/10/21 06:14:22;;;;;;;15.18;11.15;;;12.90;75.60;;;;;;4979360;28;20035;-52
2021/10/21 06:16:48;;;;;;;14.25;11.32;;;13.00;75.70;;;;;;4978260;28;20085;-54
2021/10/21 06:19:16;;;;;;;13.40;10.70;;;13.00;75.70;;;;;;4976592;28;20034;-54
2021/10/21 06:21:46;;;;;;;14.32;11.40;;;13.10;75.80;;;;;;4980533;28;20026;-53
2021/10/21 06:24:12;;;;;;;14.23;11.43;;;13.10;75.50;;;;;;4980676;28;20037;-53
2021/10/21 06:26:37;;;;;;;13.10;10.23;;;13.10;75.40;;;;;;4974723;28;22491;-51
2021/10/21 06:29:03;;;;;;;14.10;10.80;;;13.20;75.40;;;;;;4973239;28;20169;-54
2021/10/21 06:31:29;;;;;;;13.35;10.95;;;13.20;75.40;;;;;;4977188;28;20035;-53
2021/10/21 06:33:54;;;;;;;13.10;10.70;;;13.30;75.30;;;;;;4977050;28;20041;-54
2021/10/21 06:36:25;;;;;;;15.23;11.18;;;13.30;75.20;;;;;;4975745;28;20088;-54
2021/10/21 06:38:51;;;;;;;12.63;10.13;;;13.30;75.20;;;;;;4976592;28;20105;-54
2021/10/21 06:41:16;;;;;;;13.18;10.45;;;13.40;75.10;;;;;;4978047;28;20034;-51
2021/10/21 06:43:42;;;;;;;13.40;9.55;;;13.40;75.20;;;;;;4970383;28;20034;-51
2021/10/21 06:46:08;;;;;;;11.55;10.13;;;13.40;75.00;;;;;;4975009;28;20112;-52
2021/10/21 06:48:34;;;;;;;12.23;9.60;;;13.50;75.00;;;;;;4976024;28;20042;-54
2021/10/21 06:51:00;;;;;;;12.30;10.80;;;13.50;74.70;;;;;;4977460;28;20046;-53
2021/10/21 06:53:26;;;;;;;12.40;10.45;;;13.50;74.60;;;;;;4974834;28;20041;-53
2021/10/21 06:55:52;;;;;;;13.70;10.05;;;13.60;74.60;;;;;;4972860;28;20060;-50
2021/10/21 06:58:18;;;;;;;13.65;10.00;;;13.60;74.50;;;;;;4974900;28;22048;-53
2021/10/21 07:00:44;;;;;;;13.18;10.18;;;13.60;74.30;;;;;;4970374;28;21153;-53
2021/10/21 07:03:10;;;;;;;12.27;10.27;;;13.60;74.30;;;;;;4971271;28;20018;-54
2021/10/21 07:05:41;;;;;;;11.98;10.13;;;13.60;74.20;;;;;;4973424;28;20042;-53
2021/10/21 07:08:07;;;;;;;12.35;9.52;;;13.60;74.20;;;;;;4976274;28;20075;-54
2021/10/21 07:10:33;;;;;;;13.23;10.68;;;13.70;74.20;;;;;;4969084;28;23671;-51
2021/10/21 07:13:02;;;;;;;12.57;9.95;;;13.60;74.30;;;;;;4972071;28;20041;-51
2021/10/21 07:15:28;;;;;;;12.15;9.30;;;13.70;74.10;;;;;;4969627;28;20030;-51
2021/10/21 07:17:54;;;;;;;13.05;9.40;;;13.70;74.00;;;;;;4968174;28;20035;-54
2021/10/21 07:20:20;;;;;;;12.30;9.38;;;13.80;73.90;;;;;;4964573;28;20569;-53
2021/10/21 07:22:45;;;;;;;10.73;9.10;;;13.80;73.80;;;;;;4975146;28;20042;-52
2021/10/21 07:25:11;;;;;;;11.10;8.40;;;13.90;73.70;;;;;;4968484;28;20034;-51
2021/10/21 07:27:37;;;;;;;10.52;8.75;;;13.90;73.50;;;;;;4972098;28;20093;-54
2021/10/21 07:30:04;;;;;;;10.85;7.95;;;14.00;73.30;;;;;;4971224;28;20037;-53
2021/10/21 07:32:30;;;;;;;10.68;7.93;;;14.00;73.80;;;;;;4968350;28;20041;-53
2021/10/21 07:34:55;;;;;;;8.70;7.35;;;14.10;73.10;;;;;;4967935;28;20039;-56
2021/10/21 07:37:21;;;;;;;10.68;8.68;;;14.10;72.90;;;;;;4968933;28;20042;-56
2021/10/21 07:39:48;;;;;;;11.60;8.18;;;14.20;72.90;;;;;;4970100;28;20113;-57
2021/10/21 07:42:14;;;;;;;10.55;7.53;;;14.30;72.70;;;;;;4970066;28;20431;-55
2021/10/21 07:44:50;;;;;;;9.43;7.45;;;14.30;72.50;;;;;;4968581;28;20736;-54
2021/10/21 07:47:17;;;;;;;10.38;7.47;;;14.40;72.40;;;;;;4970120;28;20041;-56
2021/10/21 07:49:43;;;;;;;10.13;6.82;;;14.40;72.00;;;;;;4970626;28;20034;-56
2021/10/21 07:52:09;;;;;;;9.82;7.40;;;14.50;72.00;;;;;;4965562;28;20042;-56
2021/10/21 07:54:35;;;;;;;8.63;6.40;;;14.60;71.80;;;;;;4955141;28;20181;-55
2021/10/21 07:57:03;;;;;;;10.10;7.38;;;14.60;71.70;;;;;;4960443;28;20034;-54
2021/10/21 07:59:30;;;;;;;11.00;7.32;;;14.70;71.40;;;;;;4958918;28;20061;-56
2021/10/21 08:01:59;;;;;;;9.02;7.10;;;14.80;71.20;;;;;;4954824;28;20035;-56
2021/10/21 08:04:26;;;;;;;9.52;7.15;;;14.90;71.00;;;;;;4960698;28;20030;-57
2021/10/21 08:06:52;;;;;;;9.95;6.80;;;14.90;70.70;;;;;;4959824;28;20042;-56
2021/10/21 08:09:18;;;;;;;9.48;7.28;;;15.00;70.40;;;;;;4958289;28;20038;-55
2021/10/21 08:11:47;;;;;;;9.23;6.75;;;15.10;70.20;;;;;;4959169;28;20069;-55
2021/10/21 08:14:13;;;;;;;7.88;6.60;;;15.20;70.20;;;;;;4956675;28;20066;-57
2021/10/21 08:16:38;;;;;;;8.15;6.82;;;15.20;69.90;;;;;;4956972;28;20034;-56
2021/10/21 08:19:04;;;;;;;8.43;6.18;;;15.30;69.70;;;;;;4960761;28;20033;-57
2021/10/21 08:21:32;;;;;;;6.57;5.85;;;15.30;69.40;;;;;;4953988;28;20608;-57
2021/10/21 08:23:59;;;;;;;7.70;6.38;;;15.40;69.20;;;;;;4965030;28;20129;-55
2021/10/21 08:26:26;;;;;;;7.90;5.93;;;15.50;69.20;;;;;;4967897;28;20038;-57
2021/10/21 08:28:52;;;;;;;7.35;5.85;;;15.60;68.70;;;;;;4969446;28;20030;-56
2021/10/21 08:31:18;;;;;;;8.32;6.00;;;15.60;68.40;;;;;;4971490;28;20136;-56
2021/10/21 08:33:44;;;;;;;8.20;6.57;;;15.70;68.30;;;;;;4968994;28;20034;-56
2021/10/21 08:36:14;;;;;;;8.00;6.25;;;15.70;68.10;;;;;;4972051;28;21105;-52
2021/10/21 08:38:40;;;;;;;9.57;5.97;;;15.80;67.80;;;;;;4973762;28;20053;-54
2021/10/21 08:41:07;;;;;;;7.80;5.63;;;15.80;67.60;;;;;;4968861;28;20035;-56
2021/10/21 08:43:34;;;;;;;9.32;7.00;;;15.90;67.50;;;;;;4967381;28;20034;-56
2021/10/21 08:46:02;;;;;;;9.52;6.72;;;15.90;67.20;;;;;;4964205;28;20487;-55
2021/10/21 08:48:30;;;;;;;10.63;6.95;;;16.00;67.00;;;;;;4964826;28;20041;-54
2021/10/21 08:50:57;;;;;;;9.30;6.57;;;16.00;66.80;;;;;;4965991;28;20026;-57
2021/10/21 08:53:24;;;;;;;8.55;6.93;;;16.00;66.20;;;;;;4965472;28;20035;-56
2021/10/21 08:55:51;;;;;;;7.65;6.43;;;16.00;66.20;;;;;;4969311;28;20022;-56
2021/10/21 08:58:17;;;;;;;8.40;5.95;;;16.10;66.20;;;;;;4962740;28;20038;-56
2021/10/21 09:00:43;;;;;;;8.25;5.90;;;16.10;66.10;;;;;;4966821;28;20352;-57
2021/10/21 09:03:17;;;;;;;6.95;5.60;;;16.20;66.00;;;;;;4961727;28;20038;-56
2021/10/21 09:05:57;;;;;;;6.38;5.70;;;16.20;65.80;;;;;;4965814;28;20029;-56
2021/10/21 09:08:23;;;;;;;7.68;6.03;;;16.30;65.70;;;;;;4963428;28;20035;-57
2021/10/21 09:10:54;;;;;;;7.80;5.57;;;16.30;65.50;;;;;;4955770;28;20049;-55
2021/10/21 09:13:28;;;;;;;9.20;6.35;;;16.40;65.30;;;;;;4952951;28;20112;-56
2021/10/21 09:15:57;;;;;;;8.88;6.65;;;16.40;65.20;;;;;;4968900;28;21860;-57
2021/10/21 09:18:25;;;;;;;8.20;6.43;;;16.40;65.00;;;;;;4963614;28;20034;-56
2021/10/21 09:20:51;;;;;;;8.20;5.45;;;16.50;64.80;;;;;;4966197;28;20041;-57
2021/10/21 09:23:19;;;;;;;7.53;5.95;;;16.50;64.80;;;;;;4964991;28;20046;-57
2021/10/21 09:25:46;;;;;;;8.35;5.88;;;16.50;64.60;;;;;;4969495;28;20033;-56
2021/10/21 09:28:19;;;;;;;6.68;5.40;;;16.50;64.40;;;;;;4968340;28;20474;-56
2021/10/21 09:30:53;;;;;;;6.05;5.07;;;16.50;64.30;;;;;;4968148;28;20490;-54
2021/10/21 09:33:19;;;;;;;8.90;5.53;;;16.50;64.10;;;;;;4960703;28;20038;-56
2021/10/21 09:35:56;;;;;;;6.20;4.88;;;16.60;64.10;;;;;;4961053;28;20611;-57
2021/10/21 09:38:26;;;;;;;8.23;5.40;;;16.60;63.90;;;;;;4963042;28;21334;-56
2021/10/21 09:40:53;;;;;;;6.80;4.85;;;16.60;63.90;;;;;;4965677;28;21213;-56
2021/10/21 09:43:29;;;;;;;6.35;4.97;;;16.70;63.90;;;;;;4966534;28;20038;-56
2021/10/21 09:45:54;;;;;;;6.95;5.30;;;16.80;63.70;;;;;;4961389;28;20023;-57
2021/10/21 09:48:21;;;;;;;7.25;5.95;;;16.80;63.70;;;;;;4962756;28;20175;-55
2021/10/21 09:50:48;;;;;;;11.50;5.68;;;16.90;63.30;;;;;;4967748;28;20030;-54
2021/10/21 09:53:28;;;;;;;8.32;5.40;;;16.90;63.00;;;;;;4963392;28;20038;-55
2021/10/21 09:56:01;;;;;;;7.40;5.33;;;17.00;62.70;;;;;;4966727;28;20041;-55
2021/10/21 09:58:29;;;;;;;8.48;5.10;;;17.10;62.60;;;;;;4963356;28;20030;-55
2021/10/21 10:01:09;;;;;;;8.40;5.15;;;17.20;62.40;;;;;;4959100;28;20030;-54
2021/10/21 10:03:42;;;;;;;6.50;4.85;;;17.20;62.20;;;;;;4956435;28;20033;-54
2021/10/21 10:06:08;;;;;;;7.10;5.30;;;17.30;62.10;;;;;;4957196;28;20038;-57
2021/10/21 10:08:35;;;;;;;5.88;4.70;;;17.30;62.00;;;;;;4962634;28;20026;-56
2021/10/21 10:11:12;;;;;;;6.70;6.00;;;17.40;61.90;;;;;;4970980;28;20494;-57
2021/10/21 10:13:40;;;;;;;8.88;5.40;;;17.40;61.60;;;;;;4971748;28;22487;-54
2021/10/21 10:16:07;;;;;;;6.00;5.38;;;17.40;61.50;;;;;;4965409;28;20041;-56
2021/10/21 10:18:39;;;;;;;7.13;5.40;;;17.50;61.40;;;;;;4973241;28;20039;-56
2021/10/21 10:21:07;;;;;;;7.82;5.85;;;17.50;61.30;;;;;;4970573;28;20423;-54
2021/10/21 10:23:35;;;;;;;7.57;5.15;;;17.50;61.30;;;;;;4978256;28;20332;-55
2021/10/21 10:26:01;;;;;;;9.30;4.80;;;17.50;61.00;;;;;;4967578;28;20093;-54
2021/10/21 10:28:52;;;;;;;7.53;5.57;;;17.60;60.90;;;;;;4969119;28;20225;-55
2021/10/21 10:31:41;;;;;;;7.23;5.20;;;17.60;60.70;;;;;;4973551;28;20374;-55
2021/10/21 10:34:35;;;;;;;5.88;4.95;;;17.60;60.70;;;;;;4970963;28;20284;-54
2021/10/21 10:37:13;;;;;;;10.25;5.47;;;17.60;60.50;;;;;;4978828;28;20640;-56
2021/10/21 10:40:03;;;;;;;5.30;4.70;;;17.70;60.60;;;;;;4993271;28;20050;-56
2021/10/21 10:42:28;;;;;;;7.88;4.95;;;17.70;60.40;;;;;;4990103;28;20044;-54
2021/10/21 10:44:54;;;;;;;6.72;5.65;;;17.70;60.30;;;;;;4993729;28;20210;-54
2021/10/21 10:47:49;;;;;;;7.18;5.03;;;17.70;60.40;;;;;;4990057;28;20683;-54
2021/10/21 10:50:22;;;;;;;7.18;4.90;;;17.80;60.30;;;;;;4991303;28;20467;-54
2021/10/21 10:52:51;;;;;;;7.03;4.85;;;17.90;60.40;;;;;;4989852;28;20030;-54
2021/10/21 10:55:36;;;;;;;7.50;4.97;;;17.90;60.10;;;;;;4996140;28;20053;-56
2021/10/21 10:58:03;;;;;;;5.68;4.40;;;18.00;60.00;;;;;;4980301;28;20125;-56
2021/10/21 11:00:53;;;;;;;8.35;5.22;;;18.00;59.90;;;;;;4988310;28;20474;-57
2021/10/21 11:03:31;;;;;;;10.10;5.47;;;18.10;60.50;;;;;;4993319;28;20051;-57
2021/10/21 11:06:04;;;;;;;6.88;4.80;;;18.20;60.50;;;;;;4987931;28;20038;-57
2021/10/21 11:09:05;;;;;;;7.57;5.57;;;18.20;59.90;;;;;;4982834;28;20029;-57
2021/10/21 11:11:40;;;;;;;;;;;18.30;59.60;;;;;;4988689;28;20038;-56
2021/10/21 11:14:09;;;;;;;5.70;3.95;;;18.20;59.50;;;;;;4988034;28;19956;-57
2021/10/21 11:16:42;;;;;;;6.47;4.80;;;18.30;59.60;;;;;;4987947;28;20058;-57
2021/10/21 11:19:09;;;;;;;6.03;4.05;;;18.30;59.20;;;;;;4988788;28;20033;-55
2021/10/21 11:21:52;;;;;;;6.28;5.00;;;18.30;59.10;;;;;;4988668;28;20369;-55
2021/10/21 11:27:12;;;;;;;10.52;5.38;;;18.40;59.00;;;;;;4983682;28;20586;-57
2021/10/21 11:29:38;;;;;;;9.45;5.55;;;18.30;59.10;;;;;;4982649;28;20037;-56
2021/10/21 11:32:05;;;;;;;7.20;4.75;;;18.30;59.20;;;;;;4978448;28;20065;-53
2021/10/21 11:34:31;;;;;;;6.97;5.38;;;18.30;59.20;;;;;;4984989;28;20038;-54
2021/10/21 11:36:57;;;;;;;6.15;4.93;;;18.30;59.20;;;;;;4978991;28;20800;-56
2021/10/21 11:39:30;;;;;;;8.43;5.63;;;18.30;59.30;;;;;;4970481;28;20065;-57
2021/10/21 11:41:56;;;;;;;11.35;6.05;;;18.30;59.20;;;;;;4968160;28;20088;-56
2021/10/21 11:44:22;;;;;;;6.68;5.47;;;18.30;59.30;;;;;;4971248;28;20080;-57
2021/10/21 11:47:01;;;;;;;6.93;5.03;;;18.20;59.30;;;;;;4966369;28;20034;-55
2021/10/21 11:49:32;;;;;;;5.63;4.35;;;18.20;59.30;;;;;;4972465;28;20049;-55
2021/10/21 11:52:01;;;;;;;;;;;18.20;59.30;;;;;;4973094;28;20045;-54
2021/10/21 11:54:27;;;;;;;5.63;4.65;;;18.10;59.50;;;;;;4969186;28;19937;-55
2021/10/21 11:56:53;;;;;;;5.47;4.38;;;18.10;59.60;;;;;;4970125;28;20750;-55
2021/10/21 11:59:34;;;;;;;5.07;4.15;;;18.10;59.70;;;;;;4975156;28;20554;-57
2021/10/21 12:02:12;;;;;;;7.30;4.85;;;18.10;59.60;;;;;;4968509;28;20031;-57
2021/10/21 12:04:38;;;;;;;6.47;4.50;;;18.10;59.60;;;;;;4972819;28;20026;-57
2021/10/21 12:07:04;;;;;;;6.47;3.90;;;18.10;59.60;;;;;;4972510;28;20494;-56
2021/10/21 12:09:34;;;;;;;4.93;3.97;;;18.10;59.50;;;;;;4975808;28;20045;-58
2021/10/21 12:12:14;;;;;;;7.30;3.85;;;18.10;59.40;;;;;;4973330;28;20038;-55
2021/10/21 12:14:46;;;;;;;5.10;4.00;;;18.20;59.40;;;;;;4977415;28;20050;-54
2021/10/21 12:17:12;;;;;;;5.03;4.05;;;18.20;59.30;;;;;;4972985;28;20589;-54
2021/10/21 12:19:51;;;;;;;7.50;4.20;;;18.20;59.30;;;;;;4972665;28;20033;-55
2021/10/21 12:22:22;;;;;;;5.53;4.03;;;18.30;59.30;;;;;;4950925;28;20144;-56
2021/10/21 12:24:48;;;;;;;4.80;3.85;;;18.30;59.10;;;;;;4967504;28;20080;-55
2021/10/21 12:27:24;;;;;;;6.05;3.97;;;18.30;59.10;;;;;;4968447;28;20038;-55
2021/10/21 12:29:50;;;;;;;4.53;3.40;;;18.40;58.90;;;;;;4965032;28;20031;-55
2021/10/21 12:32:22;;;;;;;6.63;3.88;;;18.40;58.70;;;;;;4970099;28;20026;-55
2021/10/21 12:34:48;;;;;;;7.00;3.75;;;18.30;58.60;;;;;;4974242;28;20050;-55
2021/10/21 12:37:22;;;;;;;4.15;3.22;;;18.40;58.50;;;;;;4975133;28;20038;-55
2021/10/21 12:39:48;;;;;;;4.82;3.15;;;18.40;58.60;;;;;;4971178;28;20486;-55
2021/10/21 12:42:24;;;;;;;6.10;3.17;;;18.40;58.40;;;;;;4971643;28;20117;-55
2021/10/21 12:45:00;;;;;;;5.00;3.30;;;18.40;58.20;;;;;;4965675;28;20747;-55